createdAt,value
2023-03-30T00:02:47.067Z,99.50
2023-03-30T00:05:56.691Z,99.70
2023-03-30T00:08:59.886Z,99.70
2023-03-30T00:12:03.704Z,99.60
2023-03-30T00:15:08.271Z,99.80
2023-03-30T00:18:10.800Z,99.80
2023-03-30T00:21:18.388Z,99.80
2023-03-30T00:24:21.063Z,99.60
2023-03-30T00:27:23.083Z,99.90
2023-03-30T00:30:25.166Z,99.90
2023-03-30T00:33:41.369Z,99.90
2023-03-30T00:36:49.161Z,99.90
2023-03-30T00:39:53.497Z,99.90
2023-03-30T00:43:04.979Z,99.90
2023-03-30T00:46:08.107Z,99.90
2023-03-30T00:49:11.040Z,99.90
2023-03-30T00:52:13.476Z,99.90
2023-03-30T00:55:15.489Z,99.90
2023-03-30T00:58:20.066Z,99.90
2023-03-30T01:01:31.544Z,99.90
2023-03-30T01:04:37.522Z,99.90
2023-03-30T01:07:41.530Z,99.90
2023-03-30T01:10:45.273Z,99.90
2023-03-30T01:13:52.995Z,99.90
2023-03-30T01:17:08.690Z,99.90
2023-03-30T01:20:24.735Z,99.90
2023-03-30T01:23:55.111Z,99.90
2023-03-30T01:27:03.189Z,99.90
2023-03-30T01:30:34.658Z,99.90
2023-03-30T01:34:09.850Z,99.90
2023-03-30T01:37:30.550Z,99.90
2023-03-30T01:40:38.826Z,99.90
2023-03-30T01:43:52.985Z,99.90
2023-03-30T01:47:08.785Z,99.90
2023-03-30T01:50:52.885Z,99.90
2023-03-30T01:54:06.850Z,99.90
2023-03-30T01:57:15.572Z,99.90
2023-03-30T02:00:22.816Z,99.90
2023-03-30T02:03:38.431Z,99.90
2023-03-30T02:06:46.660Z,99.90
2023-03-30T02:09:54.566Z,99.90
2023-03-30T02:12:59.007Z,99.90
2023-03-30T02:16:15.313Z,99.90
2023-03-30T02:19:17.504Z,99.90
2023-03-30T02:22:20.939Z,99.90
2023-03-30T02:25:23.519Z,99.90
2023-03-30T02:28:25.814Z,99.90
2023-03-30T02:31:28.108Z,99.90
2023-03-30T02:34:51.124Z,99.90
2023-03-30T02:38:05.148Z,99.90
2023-03-30T02:41:48.719Z,99.90
2023-03-30T02:45:05.108Z,99.90
2023-03-30T02:48:23.185Z,99.90
2023-03-30T02:51:43.309Z,99.90
2023-03-30T02:54:58.694Z,99.90
2023-03-30T02:58:12.867Z,99.90
2023-03-30T03:01:25.687Z,99.90
2023-03-30T03:04:29.629Z,99.90
2023-03-30T03:07:34.041Z,99.90
2023-03-30T03:10:37.106Z,99.90
2023-03-30T03:13:40.234Z,99.90
2023-03-30T03:16:43.790Z,99.90
2023-03-30T03:19:46.593Z,99.90
2023-03-30T03:22:48.605Z,99.90
2023-03-30T03:25:50.959Z,99.90
2023-03-30T03:28:53.101Z,99.90
2023-03-30T03:31:55.185Z,99.90
2023-03-30T03:34:57.230Z,99.90
2023-03-30T03:37:59.267Z,99.90
2023-03-30T03:41:01.388Z,99.90
2023-03-30T03:44:03.593Z,99.90
2023-03-30T03:47:05.711Z,99.90
2023-03-30T03:50:10.147Z,99.90
2023-03-30T03:53:12.526Z,99.90
2023-03-30T03:56:15.038Z,99.90
2023-03-30T03:59:17.102Z,99.90
2023-03-30T04:02:22.531Z,99.90
2023-03-30T04:05:26.549Z,99.90
2023-03-30T04:08:29.150Z,99.90
2023-03-30T04:11:31.149Z,99.90
2023-03-30T04:14:34.869Z,99.90
2023-03-30T04:17:37.327Z,99.90
2023-03-30T04:20:39.490Z,99.90
2023-03-30T04:23:45.921Z,99.90
2023-03-30T04:26:49.227Z,99.90
2023-03-30T04:29:51.742Z,99.90
2023-03-30T04:33:05.401Z,99.90
2023-03-30T04:36:07.760Z,99.90
2023-03-30T04:39:13.901Z,99.90
2023-03-30T04:42:20.222Z,99.90
2023-03-30T04:45:22.529Z,99.90
2023-03-30T04:48:24.903Z,99.90
2023-03-30T04:51:27.022Z,99.90
2023-03-30T04:54:32.749Z,99.90
2023-03-30T04:57:35.546Z,99.90
2023-03-30T05:00:38.101Z,99.90
2023-03-30T05:03:40.470Z,99.90
2023-03-30T05:06:44.285Z,99.90
2023-03-30T05:09:46.402Z,99.90
2023-03-30T05:12:48.796Z,99.90
2023-03-30T05:15:55.816Z,99.90
2023-03-30T05:18:57.978Z,99.90
2023-03-30T05:22:01.212Z,99.90
2023-03-30T05:25:07.324Z,99.90
2023-03-30T05:28:09.486Z,99.90
2023-03-30T05:31:11.822Z,99.90
2023-03-30T05:34:13.983Z,99.90
2023-03-30T05:37:16.061Z,99.90
2023-03-30T05:40:20.124Z,99.90
2023-03-30T05:43:22.204Z,99.90
2023-03-30T05:46:24.262Z,99.90
2023-03-30T05:49:26.516Z,99.90
2023-03-30T05:52:28.721Z,99.90
2023-03-30T05:55:30.727Z,99.90
2023-03-30T05:58:33.135Z,99.90
2023-03-30T06:01:35.179Z,99.90
2023-03-30T06:04:43.974Z,99.90
2023-03-30T06:07:46.172Z,99.90
2023-03-30T06:10:56.092Z,99.90
2023-03-30T06:13:58.904Z,99.90
2023-03-30T06:17:01.802Z,99.90
2023-03-30T06:20:11.334Z,99.90
2023-03-30T06:23:13.503Z,99.90
2023-03-30T06:26:15.768Z,99.90
2023-03-30T06:29:18.010Z,99.90
2023-03-30T06:32:20.252Z,99.90
2023-03-30T06:35:22.930Z,99.90
2023-03-30T06:38:24.950Z,99.90
2023-03-30T06:41:26.967Z,99.90
2023-03-30T06:44:29.070Z,99.90
2023-03-30T06:47:31.301Z,99.90
2023-03-30T06:50:34.134Z,99.90
2023-03-30T06:53:36.343Z,99.90
2023-03-30T06:56:41.814Z,99.90
2023-03-30T06:59:43.839Z,99.90
2023-03-30T07:02:46.238Z,99.90
2023-03-30T07:05:49.599Z,99.90
2023-03-30T07:08:54.337Z,99.90
2023-03-30T07:11:57.787Z,99.90
2023-03-30T07:14:59.863Z,99.90
2023-03-30T07:18:02.235Z,99.90
2023-03-30T07:21:09.100Z,99.90
2023-03-30T07:24:14.911Z,99.90
2023-03-30T07:27:17.678Z,99.90
2023-03-30T07:30:22.849Z,99.90
2023-03-30T07:33:25.014Z,99.90
2023-03-30T07:36:27.343Z,99.90
2023-03-30T07:39:32.777Z,99.90
2023-03-30T07:42:36.875Z,99.90
2023-03-30T07:45:38.969Z,99.90
2023-03-30T07:48:44.253Z,99.90
2023-03-30T07:51:46.336Z,97.70
2023-03-30T07:54:48.442Z,95.80
2023-03-30T07:57:50.464Z,93.20
2023-03-30T08:00:54.166Z,93.00
2023-03-30T08:03:56.529Z,91.60
2023-03-30T08:07:01.573Z,91.70
2023-03-30T08:10:05.377Z,90.80
2023-03-30T08:13:07.816Z,91.10
2023-03-30T08:16:09.831Z,90.80
2023-03-30T08:19:15.031Z,91.00
2023-03-30T08:22:18.338Z,89.70
2023-03-30T08:25:20.777Z,87.70
2023-03-30T08:28:24.872Z,84.90
2023-03-30T08:31:27.055Z,84.60
2023-03-30T08:34:31.853Z,85.60
2023-03-30T08:37:34.056Z,83.90
2023-03-30T08:40:41.670Z,84.20
2023-03-30T08:43:53.050Z,86.50
2023-03-30T08:46:55.528Z,86.50
2023-03-30T08:50:19.212Z,88.60
2023-03-30T08:53:21.473Z,90.70
2023-03-30T08:56:31.986Z,86.80
2023-03-30T08:59:54.337Z,81.70
2023-03-30T09:03:22.870Z,77.20
2023-03-30T09:06:46.743Z,73.80
2023-03-30T09:09:53.662Z,74.10
2023-03-30T09:13:00.569Z,75.00
2023-03-30T09:16:26.632Z,74.20
2023-03-30T09:19:36.583Z,76.40
2023-03-30T09:22:41.951Z,75.60
2023-03-30T09:26:13.471Z,75.70
2023-03-30T09:29:39.294Z,73.00
2023-03-30T09:32:44.151Z,69.70
2023-03-30T09:36:14.392Z,67.60
2023-03-30T09:39:21.701Z,66.20
2023-03-30T09:42:48.198Z,65.40
2023-03-30T09:45:50.308Z,63.60
2023-03-30T09:48:52.716Z,63.60
2023-03-30T09:52:02.604Z,64.60
2023-03-30T09:55:32.677Z,64.00
2023-03-30T09:58:35.272Z,60.00
2023-03-30T10:01:38.842Z,57.00
2023-03-30T10:04:53.845Z,56.60
2023-03-30T10:08:03.304Z,60.50
2023-03-30T10:11:06.732Z,64.70
2023-03-30T10:14:27.629Z,67.90
2023-03-30T10:17:31.830Z,69.60
2023-03-30T10:20:36.589Z,71.80
2023-03-30T10:23:41.993Z,73.50
2023-03-30T10:26:47.354Z,74.20
2023-03-30T10:29:52.082Z,76.10
2023-03-30T10:33:00.367Z,76.00
2023-03-30T10:36:03.838Z,78.50
2023-03-30T10:39:23.390Z,74.50
2023-03-30T10:42:30.042Z,73.90
2023-03-30T10:45:37.996Z,75.50
2023-03-30T10:48:58.091Z,76.20
2023-03-30T10:52:18.679Z,76.10
2023-03-30T10:55:57.518Z,77.30
2023-03-30T10:59:32.290Z,76.10
2023-03-30T11:03:08.625Z,73.80
2023-03-30T11:06:28.085Z,71.50
2023-03-30T11:09:35.176Z,71.00
2023-03-30T11:12:44.004Z,70.10
2023-03-30T11:16:02.135Z,68.60
2023-03-30T11:19:12.915Z,70.70
2023-03-30T11:22:42.531Z,71.20
2023-03-30T11:26:03.970Z,71.60
2023-03-30T11:29:31.366Z,69.00
2023-03-30T11:32:54.638Z,67.40
2023-03-30T11:36:17.813Z,67.70
2023-03-30T11:39:32.172Z,66.30
2023-03-30T11:42:36.657Z,67.30
2023-03-30T11:46:08.924Z,66.60
2023-03-30T11:49:36.034Z,68.70
2023-03-30T11:53:08.437Z,69.30
2023-03-30T11:56:13.261Z,73.10
2023-03-30T11:59:37.747Z,72.80
2023-03-30T12:02:58.691Z,74.70
2023-03-30T12:06:06.847Z,75.10
2023-03-30T12:09:36.438Z,76.60
2023-03-30T12:12:42.748Z,76.70
2023-03-30T12:15:56.226Z,76.40
2023-03-30T12:19:19.740Z,76.50
2023-03-30T12:22:58.453Z,77.30
2023-03-30T12:26:23.990Z,77.50
2023-03-30T12:30:01.514Z,77.90
2023-03-30T12:33:13.185Z,79.00
2023-03-30T12:36:34.175Z,80.00
2023-03-30T12:39:53.766Z,80.20
2023-03-30T12:43:08.772Z,80.60
2023-03-30T12:46:36.093Z,81.70
2023-03-30T12:50:07.103Z,82.50
2023-03-30T12:53:42.322Z,82.60
2023-03-30T12:57:01.444Z,82.60
2023-03-30T13:00:28.217Z,83.30
2023-03-30T13:03:50.017Z,83.30
2023-03-30T13:07:02.715Z,84.20
2023-03-30T13:10:30.206Z,83.40
2023-03-30T13:13:54.148Z,83.30
2023-03-30T13:16:56.251Z,83.50
2023-03-30T13:20:29.978Z,83.40
2023-03-30T13:23:37.855Z,83.60
2023-03-30T13:26:43.777Z,85.40
2023-03-30T13:30:14.008Z,85.20
2023-03-30T13:33:20.424Z,84.70
2023-03-30T13:36:28.077Z,84.00
2023-03-30T13:40:00.672Z,84.90
2023-03-30T13:43:51.886Z,85.60
2023-03-30T13:46:55.046Z,85.70
2023-03-30T13:50:28.757Z,84.10
2023-03-30T13:53:42.507Z,83.20
2023-03-30T13:56:50.414Z,83.30
2023-03-30T14:00:02.151Z,83.70
2023-03-30T14:03:40.322Z,83.90
2023-03-30T14:06:50.563Z,85.50
2023-03-30T14:10:13.359Z,85.50
2023-03-30T14:13:17.725Z,84.60
2023-03-30T14:16:27.859Z,84.70
2023-03-30T14:19:36.252Z,84.90
2023-03-30T14:22:41.250Z,86.00
2023-03-30T14:25:45.060Z,85.70
2023-03-30T14:28:48.302Z,85.70
2023-03-30T14:32:06.645Z,83.80
2023-03-30T14:35:18.240Z,84.70
2023-03-30T14:38:45.038Z,85.20
2023-03-30T14:41:47.156Z,85.90
2023-03-30T14:44:51.979Z,84.60
2023-03-30T14:47:56.448Z,84.70
2023-03-30T14:51:01.109Z,86.10
2023-03-30T14:54:04.251Z,86.00
2023-03-30T14:57:08.136Z,86.30
2023-03-30T15:00:29.050Z,86.10
2023-03-30T15:03:34.798Z,86.40
2023-03-30T15:06:38.125Z,86.80
2023-03-30T15:09:41.209Z,86.30
2023-03-30T15:12:46.431Z,86.60
2023-03-30T15:15:48.541Z,86.90
2023-03-30T15:18:53.348Z,87.50
2023-03-30T15:22:00.193Z,88.40
2023-03-30T15:25:24.176Z,88.10
2023-03-30T15:28:30.528Z,89.10
2023-03-30T15:31:32.629Z,89.00
2023-03-30T15:34:34.864Z,88.00
2023-03-30T15:37:37.076Z,89.00
2023-03-30T15:40:44.428Z,90.00
2023-03-30T15:44:25.030Z,90.10
2023-03-30T15:47:27.131Z,90.40
2023-03-30T15:50:29.201Z,90.60
2023-03-30T15:53:43.422Z,90.90
2023-03-30T15:57:16.782Z,90.80
2023-03-30T16:00:34.309Z,90.50
2023-03-30T16:03:40.745Z,90.70
2023-03-30T16:06:45.214Z,90.80
2023-03-30T16:09:49.352Z,90.50
2023-03-30T16:12:53.240Z,90.50
2023-03-30T16:15:56.093Z,90.80
2023-03-30T16:18:58.145Z,91.00
2023-03-30T16:22:00.121Z,91.00
2023-03-30T16:25:02.287Z,91.30
2023-03-30T16:28:04.623Z,91.30
2023-03-30T16:31:20.304Z,91.40
2023-03-30T16:34:22.330Z,91.30
2023-03-30T16:37:24.386Z,91.30
2023-03-30T16:40:30.014Z,91.60
2023-03-30T16:43:32.517Z,91.90
2023-03-30T16:46:34.750Z,91.90
2023-03-30T16:49:36.817Z,92.40
2023-03-30T16:52:38.914Z,92.30
2023-03-30T16:55:41.700Z,92.40
2023-03-30T16:58:43.970Z,92.60
2023-03-30T17:01:46.232Z,92.50
2023-03-30T17:04:48.418Z,92.60
2023-03-30T17:07:54.681Z,92.90
2023-03-30T17:11:03.913Z,93.00
2023-03-30T17:14:06.339Z,92.90
2023-03-30T17:17:08.486Z,93.20
2023-03-30T17:20:31.603Z,92.80
2023-03-30T17:23:33.992Z,93.10
2023-03-30T17:26:36.439Z,93.40
2023-03-30T17:29:38.851Z,93.50
2023-03-30T17:32:40.933Z,93.60
2023-03-30T17:35:59.909Z,93.50
2023-03-30T17:39:05.342Z,94.10
2023-03-30T17:42:08.651Z,93.90
2023-03-30T17:45:12.445Z,94.10
2023-03-30T17:48:17.738Z,94.70
2023-03-30T17:51:21.198Z,95.00
2023-03-30T17:54:24.069Z,94.90
2023-03-30T17:57:26.131Z,95.30
2023-03-30T18:00:33.533Z,95.30
2023-03-30T18:03:36.209Z,95.10
2023-03-30T18:06:38.270Z,95.30
2023-03-30T18:09:41.303Z,95.30
2023-03-30T18:12:43.491Z,95.50
2023-03-30T18:15:51.934Z,95.70
2023-03-30T18:18:54.021Z,95.60
2023-03-30T18:21:58.776Z,95.70
2023-03-30T18:25:02.148Z,95.90
2023-03-30T18:28:07.397Z,95.70
2023-03-30T18:31:09.625Z,95.80
2023-03-30T18:34:11.659Z,95.90
2023-03-30T18:37:13.668Z,96.30
2023-03-30T18:40:21.802Z,96.50
2023-03-30T18:43:24.983Z,96.70
2023-03-30T18:46:27.118Z,96.80
2023-03-30T18:49:29.217Z,97.20
2023-03-30T18:52:31.843Z,97.00
2023-03-30T18:55:36.644Z,97.00
2023-03-30T18:58:42.161Z,97.00
2023-03-30T19:01:46.001Z,97.70
2023-03-30T19:04:48.211Z,97.50
2023-03-30T19:07:50.594Z,97.70
2023-03-30T19:10:55.569Z,98.00
2023-03-30T19:14:00.430Z,97.90
2023-03-30T19:17:02.610Z,98.30
2023-03-30T19:20:06.990Z,98.60
2023-03-30T19:23:11.431Z,98.70
2023-03-30T19:26:13.587Z,98.70
2023-03-30T19:29:15.817Z,99.10
2023-03-30T19:32:19.715Z,99.10
2023-03-30T19:35:22.024Z,98.90
2023-03-30T19:38:24.067Z,98.50
2023-03-30T19:41:26.890Z,98.50
2023-03-30T19:44:29.081Z,98.70
2023-03-30T19:47:32.721Z,98.90
2023-03-30T19:50:34.877Z,99.50
2023-03-30T19:53:37.288Z,99.00
2023-03-30T19:56:39.394Z,99.00
2023-03-30T19:59:41.411Z,98.70
2023-03-30T20:02:46.403Z,99.10
2023-03-30T20:05:50.669Z,99.10
2023-03-30T20:08:54.201Z,99.40
2023-03-30T20:11:57.971Z,99.60
2023-03-30T20:15:00.767Z,99.30
2023-03-30T20:18:03.109Z,99.30
2023-03-30T20:21:05.302Z,99.30
2023-03-30T20:24:07.753Z,99.20
2023-03-30T20:27:09.926Z,99.30
2023-03-30T20:30:12.842Z,99.40
2023-03-30T20:33:15.045Z,99.50
2023-03-30T20:36:17.376Z,99.50
2023-03-30T20:39:21.881Z,99.90
2023-03-30T20:42:26.526Z,99.90
2023-03-30T20:45:30.886Z,99.90
2023-03-30T20:48:37.636Z,99.90
2023-03-30T20:51:40.224Z,99.90
2023-03-30T20:54:42.472Z,99.90
2023-03-30T20:57:44.544Z,99.90
2023-03-30T21:00:47.474Z,99.90
2023-03-30T21:03:50.981Z,99.90
2023-03-30T21:06:53.730Z,99.90
2023-03-30T21:09:55.859Z,99.90
2023-03-30T21:12:57.876Z,99.90
2023-03-30T21:16:04.728Z,99.90
2023-03-30T21:19:06.895Z,99.90
2023-03-30T21:22:09.117Z,99.90
2023-03-30T21:25:12.830Z,99.90
2023-03-30T21:28:15.825Z,99.90
2023-03-30T21:31:17.946Z,99.90
2023-03-30T21:34:20.892Z,99.90
2023-03-30T21:37:22.873Z,99.90
2023-03-30T21:40:25.043Z,99.90
2023-03-30T21:43:29.188Z,99.90
2023-03-30T21:46:31.466Z,99.90
2023-03-30T21:49:34.264Z,99.90
2023-03-30T21:52:36.382Z,99.90
2023-03-30T21:55:38.655Z,99.90
2023-03-30T21:58:41.437Z,99.90
2023-03-30T22:01:43.494Z,99.90
2023-03-30T22:04:45.785Z,99.90
2023-03-30T22:07:47.783Z,99.90
2023-03-30T22:11:00.616Z,99.90
2023-03-30T22:14:02.678Z,99.90
2023-03-30T22:17:04.705Z,99.90
2023-03-30T22:20:13.128Z,99.90
2023-03-30T22:23:15.131Z,99.90
2023-03-30T22:26:17.350Z,99.90
2023-03-30T22:29:20.999Z,99.90
2023-03-30T22:32:23.570Z,99.90
2023-03-30T22:35:25.708Z,99.90
2023-03-30T22:38:28.254Z,99.90
2023-03-30T22:41:30.589Z,99.90
2023-03-30T22:44:32.910Z,99.90
2023-03-30T22:47:35.021Z,99.90
2023-03-30T22:50:37.014Z,99.90
2023-03-30T22:53:39.084Z,99.90
2023-03-30T22:56:41.175Z,99.90
2023-03-30T22:59:44.453Z,99.90
2023-03-30T23:02:47.824Z,99.90
2023-03-30T23:05:51.776Z,99.90
2023-03-30T23:08:54.607Z,99.90
2023-03-30T23:11:56.632Z,99.90
2023-03-30T23:14:59.473Z,99.90
2023-03-30T23:18:01.509Z,99.90
2023-03-30T23:21:07.117Z,99.90
2023-03-30T23:24:11.471Z,99.90
2023-03-30T23:27:13.659Z,99.90
2023-03-30T23:30:16.126Z,99.90
2023-03-30T23:33:18.193Z,99.90
2023-03-30T23:36:21.468Z,99.90
2023-03-30T23:39:26.085Z,99.90
2023-03-30T23:42:29.229Z,99.90
2023-03-30T23:45:31.780Z,99.90
2023-03-30T23:48:33.884Z,99.90
2023-03-30T23:51:36.028Z,99.90
2023-03-30T23:54:44.186Z,99.90
2023-03-30T23:57:46.180Z,99.90
